sensor_id;sensor_type;location;lat;lon;timestamp;P1;durP1;ratioP1;P2;durP2;ratioP2
46491;SDS011;32206;51.446;6.792;2022-11-04T00:01:28;1.35;;;0.70;;
46491;SDS011;32206;51.446;6.792;2022-11-04T00:03:54;4.20;;;0.60;;
46491;SDS011;32206;51.446;6.792;2022-11-04T00:06:20;0.90;;;0.73;;
46491;SDS011;32206;51.446;6.792;2022-11-04T00:08:49;0.65;;;0.60;;
46491;SDS011;32206;51.446;6.792;2022-11-04T00:11:16;1.42;;;0.75;;
46491;SDS011;32206;51.446;6.792;2022-11-04T00:14:00;0.70;;;0.70;;
46491;SDS011;32206;51.446;6.792;2022-11-04T00:16:26;1.60;;;0.90;;
46491;SDS011;32206;51.446;6.792;2022-11-04T00:19:10;0.80;;;0.80;;
46491;SDS011;32206;51.446;6.792;2022-11-04T00:21:36;2.25;;;0.90;;
46491;SDS011;32206;51.446;6.792;2022-11-04T00:24:20;1.30;;;1.20;;
46491;SDS011;32206;51.446;6.792;2022-11-04T00:27:04;2.70;;;1.10;;
46491;SDS011;32206;51.446;6.792;2022-11-04T00:29:48;0.80;;;0.80;;
46491;SDS011;32206;51.446;6.792;2022-11-04T00:32:13;0.80;;;0.80;;
46491;SDS011;32206;51.446;6.792;2022-11-04T00:34:57;2.03;;;1.15;;
46491;SDS011;32206;51.446;6.792;2022-11-04T00:37:23;1.58;;;1.30;;
46491;SDS011;32206;51.446;6.792;2022-11-04T00:39:49;3.45;;;1.05;;
46491;SDS011;32206;51.446;6.792;2022-11-04T00:42:14;4.88;;;0.90;;
46491;SDS011;32206;51.446;6.792;2022-11-04T00:44:40;1.88;;;1.13;;
46491;SDS011;32206;51.446;6.792;2022-11-04T00:47:05;1.38;;;0.80;;
46491;SDS011;32206;51.446;6.792;2022-11-04T00:49:31;3.05;;;1.10;;
46491;SDS011;32206;51.446;6.792;2022-11-04T00:51:56;2.60;;;1.25;;
46491;SDS011;32206;51.446;6.792;2022-11-04T00:54:22;2.25;;;1.67;;
46491;SDS011;32206;51.446;6.792;2022-11-04T00:56:47;2.28;;;1.48;;
46491;SDS011;32206;51.446;6.792;2022-11-04T00:59:13;4.97;;;1.77;;
46491;SDS011;32206;51.446;6.792;2022-11-04T01:01:39;1.65;;;1.40;;
46491;SDS011;32206;51.446;6.792;2022-11-04T01:04:05;1.55;;;1.45;;
46491;SDS011;32206;51.446;6.792;2022-11-04T01:06:31;2.20;;;2.00;;
46491;SDS011;32206;51.446;6.792;2022-11-04T01:08:57;4.32;;;2.08;;
46491;SDS011;32206;51.446;6.792;2022-11-04T01:11:24;2.97;;;2.33;;
46491;SDS011;32206;51.446;6.792;2022-11-04T01:13:52;3.00;;;2.70;;
46491;SDS011;32206;51.446;6.792;2022-11-04T01:16:18;3.25;;;2.13;;
46491;SDS011;32206;51.446;6.792;2022-11-04T01:18:44;3.67;;;2.45;;
46491;SDS011;32206;51.446;6.792;2022-11-04T01:21:11;2.63;;;2.42;;
46491;SDS011;32206;51.446;6.792;2022-11-04T01:23:38;3.03;;;2.10;;
46491;SDS011;32206;51.446;6.792;2022-11-04T01:26:05;3.83;;;2.72;;
46491;SDS011;32206;51.446;6.792;2022-11-04T01:28:32;3.60;;;2.53;;
46491;SDS011;32206;51.446;6.792;2022-11-04T01:30:58;2.67;;;2.40;;
46491;SDS011;32206;51.446;6.792;2022-11-04T01:33:24;2.88;;;2.63;;
46491;SDS011;32206;51.446;6.792;2022-11-04T01:35:49;2.15;;;1.88;;
46491;SDS011;32206;51.446;6.792;2022-11-04T01:38:15;3.80;;;1.88;;
46491;SDS011;32206;51.446;6.792;2022-11-04T01:40:41;3.83;;;2.35;;
46491;SDS011;32206;51.446;6.792;2022-11-04T01:43:14;6.15;;;2.08;;
46491;SDS011;32206;51.446;6.792;2022-11-04T01:45:43;2.80;;;1.77;;
46491;SDS011;32206;51.446;6.792;2022-11-04T01:48:17;2.80;;;1.48;;
46491;SDS011;32206;51.446;6.792;2022-11-04T01:50:52;3.90;;;1.95;;
46491;SDS011;32206;51.446;6.792;2022-11-04T01:55:51;2.28;;;1.80;;
46491;SDS011;32206;51.446;6.792;2022-11-04T01:58:20;5.35;;;1.80;;
46491;SDS011;32206;51.446;6.792;2022-11-04T02:00:50;2.10;;;1.80;;
46491;SDS011;32206;51.446;6.792;2022-11-04T02:03:19;2.22;;;1.80;;
46491;SDS011;32206;51.446;6.792;2022-11-04T02:05:49;4.28;;;1.75;;
46491;SDS011;32206;51.446;6.792;2022-11-04T02:08:15;2.80;;;1.90;;
46491;SDS011;32206;51.446;6.792;2022-11-04T02:10:49;3.20;;;1.92;;
46491;SDS011;32206;51.446;6.792;2022-11-04T02:13:19;4.75;;;1.90;;
46491;SDS011;32206;51.446;6.792;2022-11-04T02:16:08;2.20;;;2.00;;
46491;SDS011;32206;51.446;6.792;2022-11-04T02:18:49;3.15;;;1.90;;
46491;SDS011;32206;51.446;6.792;2022-11-04T02:21:36;4.72;;;1.67;;
46491;SDS011;32206;51.446;6.792;2022-11-04T02:40:42;5.00;;;3.03;;
46491;SDS011;32206;51.446;6.792;2022-11-04T02:45:58;7.57;;;3.28;;
46491;SDS011;32206;51.446;6.792;2022-11-04T02:48:39;7.53;;;3.42;;
46491;SDS011;32206;51.446;6.792;2022-11-04T02:51:28;7.75;;;3.63;;
46491;SDS011;32206;51.446;6.792;2022-11-04T02:54:03;5.97;;;3.03;;
46491;SDS011;32206;51.446;6.792;2022-11-04T02:56:44;5.22;;;3.17;;
46491;SDS011;32206;51.446;6.792;2022-11-04T02:59:17;7.60;;;2.85;;
46491;SDS011;32206;51.446;6.792;2022-11-04T03:01:50;6.65;;;2.47;;
46491;SDS011;32206;51.446;6.792;2022-11-04T03:04:19;7.13;;;3.15;;
46491;SDS011;32206;51.446;6.792;2022-11-04T03:06:51;9.75;;;3.38;;
46491;SDS011;32206;51.446;6.792;2022-11-04T03:09:19;6.57;;;3.10;;
46491;SDS011;32206;51.446;6.792;2022-11-04T03:11:48;7.22;;;2.92;;
46491;SDS011;32206;51.446;6.792;2022-11-04T03:14:18;7.13;;;2.72;;
46491;SDS011;32206;51.446;6.792;2022-11-04T03:17:18;7.20;;;2.75;;
46491;SDS011;32206;51.446;6.792;2022-11-04T03:20:08;4.82;;;3.40;;
46491;SDS011;32206;51.446;6.792;2022-11-04T03:22:40;8.20;;;2.67;;
46491;SDS011;32206;51.446;6.792;2022-11-04T03:25:06;8.45;;;2.03;;
46491;SDS011;32206;51.446;6.792;2022-11-04T03:30:18;7.25;;;2.35;;
46491;SDS011;32206;51.446;6.792;2022-11-04T03:35:26;13.38;;;2.75;;
46491;SDS011;32206;51.446;6.792;2022-11-04T03:37:52;5.65;;;2.45;;
46491;SDS011;32206;51.446;6.792;2022-11-04T03:40:19;8.68;;;2.35;;
46491;SDS011;32206;51.446;6.792;2022-11-04T03:42:51;8.63;;;2.50;;
46491;SDS011;32206;51.446;6.792;2022-11-04T03:45:20;6.38;;;2.22;;
46491;SDS011;32206;51.446;6.792;2022-11-04T03:47:47;7.63;;;1.83;;
46491;SDS011;32206;51.446;6.792;2022-11-04T03:52:55;7.25;;;1.92;;
46491;SDS011;32206;51.446;6.792;2022-11-04T03:55:46;4.13;;;1.73;;
46491;SDS011;32206;51.446;6.792;2022-11-04T04:01:06;8.57;;;1.83;;
46491;SDS011;32206;51.446;6.792;2022-11-04T04:06:50;4.03;;;1.10;;
46491;SDS011;32206;51.446;6.792;2022-11-04T04:09:24;4.25;;;1.63;;
46491;SDS011;32206;51.446;6.792;2022-11-04T04:14:39;4.22;;;2.25;;
46491;SDS011;32206;51.446;6.792;2022-11-04T04:17:24;7.93;;;2.45;;
46491;SDS011;32206;51.446;6.792;2022-11-04T04:20:13;6.53;;;1.65;;
46491;SDS011;32206;51.446;6.792;2022-11-04T04:22:43;8.73;;;1.88;;
46491;SDS011;32206;51.446;6.792;2022-11-04T04:25:15;9.20;;;1.60;;
46491;SDS011;32206;51.446;6.792;2022-11-04T04:28:00;5.22;;;1.15;;
46491;SDS011;32206;51.446;6.792;2022-11-04T04:30:27;6.30;;;1.40;;
46491;SDS011;32206;51.446;6.792;2022-11-04T04:35:26;4.88;;;1.30;;
46491;SDS011;32206;51.446;6.792;2022-11-04T04:38:08;7.03;;;1.10;;
46491;SDS011;32206;51.446;6.792;2022-11-04T04:44:00;4.88;;;1.63;;
46491;SDS011;32206;51.446;6.792;2022-11-04T04:46:46;5.03;;;1.05;;
46491;SDS011;32206;51.446;6.792;2022-11-04T04:49:14;4.68;;;0.93;;
46491;SDS011;32206;51.446;6.792;2022-11-04T04:51:41;3.60;;;1.00;;
46491;SDS011;32206;51.446;6.792;2022-11-04T04:54:09;7.63;;;1.27;;
46491;SDS011;32206;51.446;6.792;2022-11-04T04:56:35;5.90;;;1.95;;
46491;SDS011;32206;51.446;6.792;2022-11-04T04:59:00;6.28;;;1.25;;
46491;SDS011;32206;51.446;6.792;2022-11-04T05:01:26;3.97;;;1.00;;
46491;SDS011;32206;51.446;6.792;2022-11-04T05:03:52;7.97;;;1.20;;
46491;SDS011;32206;51.446;6.792;2022-11-04T05:06:17;2.65;;;1.30;;
46491;SDS011;32206;51.446;6.792;2022-11-04T05:08:43;6.32;;;1.05;;
46491;SDS011;32206;51.446;6.792;2022-11-04T05:11:08;1.23;;;1.17;;
46491;SDS011;32206;51.446;6.792;2022-11-04T05:13:34;5.28;;;1.10;;
46491;SDS011;32206;51.446;6.792;2022-11-04T05:16:07;3.15;;;0.82;;
46491;SDS011;32206;51.446;6.792;2022-11-04T05:18:34;13.15;;;2.08;;
46491;SDS011;32206;51.446;6.792;2022-11-04T05:21:04;9.70;;;1.30;;
46491;SDS011;32206;51.446;6.792;2022-11-04T05:23:31;4.20;;;1.35;;
46491;SDS011;32206;51.446;6.792;2022-11-04T05:25:58;5.82;;;1.15;;
46491;SDS011;32206;51.446;6.792;2022-11-04T05:28:23;3.30;;;1.10;;
46491;SDS011;32206;51.446;6.792;2022-11-04T05:30:49;6.95;;;1.45;;
46491;SDS011;32206;51.446;6.792;2022-11-04T05:33:15;6.13;;;1.23;;
46491;SDS011;32206;51.446;6.792;2022-11-04T05:35:40;4.78;;;1.45;;
46491;SDS011;32206;51.446;6.792;2022-11-04T05:38:06;9.80;;;2.00;;
46491;SDS011;32206;51.446;6.792;2022-11-04T05:40:31;6.60;;;1.85;;
46491;SDS011;32206;51.446;6.792;2022-11-04T05:42:58;6.43;;;1.83;;
46491;SDS011;32206;51.446;6.792;2022-11-04T05:45:24;3.95;;;1.40;;
46491;SDS011;32206;51.446;6.792;2022-11-04T05:47:57;5.32;;;1.58;;
46491;SDS011;32206;51.446;6.792;2022-11-04T05:50:28;8.93;;;1.48;;
46491;SDS011;32206;51.446;6.792;2022-11-04T05:52:58;7.07;;;1.35;;
46491;SDS011;32206;51.446;6.792;2022-11-04T05:55:24;3.47;;;1.40;;
46491;SDS011;32206;51.446;6.792;2022-11-04T05:57:51;7.25;;;1.65;;
46491;SDS011;32206;51.446;6.792;2022-11-04T06:00:17;7.35;;;1.67;;
46491;SDS011;32206;51.446;6.792;2022-11-04T06:02:43;5.60;;;1.40;;
46491;SDS011;32206;51.446;6.792;2022-11-04T06:05:09;3.85;;;1.50;;
46491;SDS011;32206;51.446;6.792;2022-11-04T06:07:34;10.23;;;2.28;;
46491;SDS011;32206;51.446;6.792;2022-11-04T06:10:00;5.72;;;1.95;;
46491;SDS011;32206;51.446;6.792;2022-11-04T06:12:26;12.88;;;2.35;;
46491;SDS011;32206;51.446;6.792;2022-11-04T06:14:51;9.18;;;2.13;;
46491;SDS011;32206;51.446;6.792;2022-11-04T06:17:18;9.00;;;1.73;;
46491;SDS011;32206;51.446;6.792;2022-11-04T06:19:45;11.55;;;2.25;;
46491;SDS011;32206;51.446;6.792;2022-11-04T06:22:12;7.20;;;1.58;;
46491;SDS011;32206;51.446;6.792;2022-11-04T06:24:41;7.32;;;2.10;;
46491;SDS011;32206;51.446;6.792;2022-11-04T06:27:08;11.25;;;2.65;;
46491;SDS011;32206;51.446;6.792;2022-11-04T06:29:34;10.70;;;2.42;;
46491;SDS011;32206;51.446;6.792;2022-11-04T06:32:05;8.07;;;2.20;;
46491;SDS011;32206;51.446;6.792;2022-11-04T06:34:36;13.38;;;2.45;;
46491;SDS011;32206;51.446;6.792;2022-11-04T06:37:02;12.73;;;3.28;;
46491;SDS011;32206;51.446;6.792;2022-11-04T06:39:27;8.07;;;2.20;;
46491;SDS011;32206;51.446;6.792;2022-11-04T06:41:53;5.05;;;2.13;;
46491;SDS011;32206;51.446;6.792;2022-11-04T06:44:19;12.60;;;2.22;;
46491;SDS011;32206;51.446;6.792;2022-11-04T06:46:44;8.27;;;1.80;;
46491;SDS011;32206;51.446;6.792;2022-11-04T06:49:12;7.68;;;2.05;;
46491;SDS011;32206;51.446;6.792;2022-11-04T06:51:43;7.07;;;1.70;;
46491;SDS011;32206;51.446;6.792;2022-11-04T06:54:10;6.50;;;1.70;;
46491;SDS011;32206;51.446;6.792;2022-11-04T06:56:35;7.93;;;2.28;;
46491;SDS011;32206;51.446;6.792;2022-11-04T06:59:01;7.90;;;2.03;;
46491;SDS011;32206;51.446;6.792;2022-11-04T07:01:28;5.90;;;1.38;;
46491;SDS011;32206;51.446;6.792;2022-11-04T07:03:56;8.32;;;1.95;;
46491;SDS011;32206;51.446;6.792;2022-11-04T07:06:23;5.93;;;2.05;;
46491;SDS011;32206;51.446;6.792;2022-11-04T07:08:50;3.63;;;1.63;;
46491;SDS011;32206;51.446;6.792;2022-11-04T07:11:17;6.90;;;1.95;;
46491;SDS011;32206;51.446;6.792;2022-11-04T07:13:45;7.53;;;2.25;;
46491;SDS011;32206;51.446;6.792;2022-11-04T07:16:11;2.65;;;1.35;;
46491;SDS011;32206;51.446;6.792;2022-11-04T07:18:37;4.57;;;1.15;;
46491;SDS011;32206;51.446;6.792;2022-11-04T07:21:03;10.90;;;1.42;;
46491;SDS011;32206;51.446;6.792;2022-11-04T07:23:29;5.32;;;1.58;;
46491;SDS011;32206;51.446;6.792;2022-11-04T07:25:58;7.25;;;1.48;;
46491;SDS011;32206;51.446;6.792;2022-11-04T07:28:25;6.80;;;1.63;;
46491;SDS011;32206;51.446;6.792;2022-11-04T07:30:54;10.00;;;1.27;;
46491;SDS011;32206;51.446;6.792;2022-11-04T07:33:21;9.85;;;1.35;;
46491;SDS011;32206;51.446;6.792;2022-11-04T07:35:46;8.23;;;1.58;;
46491;SDS011;32206;51.446;6.792;2022-11-04T07:38:12;6.72;;;1.50;;
46491;SDS011;32206;51.446;6.792;2022-11-04T07:40:38;9.32;;;1.20;;
46491;SDS011;32206;51.446;6.792;2022-11-04T07:43:03;6.70;;;1.48;;
46491;SDS011;32206;51.446;6.792;2022-11-04T07:45:29;5.80;;;1.55;;
46491;SDS011;32206;51.446;6.792;2022-11-04T07:47:54;4.25;;;1.92;;
46491;SDS011;32206;51.446;6.792;2022-11-04T07:50:21;9.07;;;1.55;;
46491;SDS011;32206;51.446;6.792;2022-11-04T07:52:47;7.70;;;1.35;;
46491;SDS011;32206;51.446;6.792;2022-11-04T07:55:14;4.82;;;1.70;;
46491;SDS011;32206;51.446;6.792;2022-11-04T07:57:42;2.90;;;1.33;;
46491;SDS011;32206;51.446;6.792;2022-11-04T08:00:12;3.90;;;1.83;;
46491;SDS011;32206;51.446;6.792;2022-11-04T08:02:41;7.65;;;1.70;;
46491;SDS011;32206;51.446;6.792;2022-11-04T08:05:14;4.88;;;1.52;;
46491;SDS011;32206;51.446;6.792;2022-11-04T08:07:40;4.63;;;1.60;;
46491;SDS011;32206;51.446;6.792;2022-11-04T08:10:06;7.22;;;1.50;;
46491;SDS011;32206;51.446;6.792;2022-11-04T08:12:32;8.70;;;1.80;;
46491;SDS011;32206;51.446;6.792;2022-11-04T08:14:58;11.50;;;1.10;;
46491;SDS011;32206;51.446;6.792;2022-11-04T08:17:24;4.95;;;1.88;;
46491;SDS011;32206;51.446;6.792;2022-11-04T08:19:50;6.07;;;2.30;;
46491;SDS011;32206;51.446;6.792;2022-11-04T08:22:15;10.75;;;3.10;;
46491;SDS011;32206;51.446;6.792;2022-11-04T08:24:41;7.22;;;3.13;;
46491;SDS011;32206;51.446;6.792;2022-11-04T08:27:07;5.75;;;2.47;;
46491;SDS011;32206;51.446;6.792;2022-11-04T08:29:34;10.50;;;1.77;;
46491;SDS011;32206;51.446;6.792;2022-11-04T08:32:00;8.73;;;1.88;;
46491;SDS011;32206;51.446;6.792;2022-11-04T08:34:26;8.00;;;1.85;;
46491;SDS011;32206;51.446;6.792;2022-11-04T08:36:51;8.48;;;1.55;;
46491;SDS011;32206;51.446;6.792;2022-11-04T08:39:17;7.03;;;1.52;;
46491;SDS011;32206;51.446;6.792;2022-11-04T08:41:43;9.18;;;1.80;;
46491;SDS011;32206;51.446;6.792;2022-11-04T08:44:09;7.68;;;1.30;;
46491;SDS011;32206;51.446;6.792;2022-11-04T08:46:39;6.25;;;1.92;;
46491;SDS011;32206;51.446;6.792;2022-11-04T08:49:06;6.15;;;1.92;;
46491;SDS011;32206;51.446;6.792;2022-11-04T08:51:32;10.77;;;1.98;;
46491;SDS011;32206;51.446;6.792;2022-11-04T08:53:59;9.45;;;1.70;;
46491;SDS011;32206;51.446;6.792;2022-11-04T08:56:29;8.07;;;1.65;;
46491;SDS011;32206;51.446;6.792;2022-11-04T08:58:57;4.40;;;2.00;;
46491;SDS011;32206;51.446;6.792;2022-11-04T09:01:24;8.55;;;1.25;;
46491;SDS011;32206;51.446;6.792;2022-11-04T09:03:50;8.43;;;2.45;;
46491;SDS011;32206;51.446;6.792;2022-11-04T09:06:18;4.32;;;1.50;;
46491;SDS011;32206;51.446;6.792;2022-11-04T09:08:49;5.60;;;1.48;;
46491;SDS011;32206;51.446;6.792;2022-11-04T09:11:16;5.63;;;1.63;;
46491;SDS011;32206;51.446;6.792;2022-11-04T09:13:42;4.78;;;1.70;;
46491;SDS011;32206;51.446;6.792;2022-11-04T09:16:09;4.43;;;1.73;;
46491;SDS011;32206;51.446;6.792;2022-11-04T09:18:36;4.47;;;1.38;;
46491;SDS011;32206;51.446;6.792;2022-11-04T09:21:02;11.55;;;1.98;;
46491;SDS011;32206;51.446;6.792;2022-11-04T09:23:29;5.40;;;1.80;;
46491;SDS011;32206;51.446;6.792;2022-11-04T09:25:56;6.13;;;1.80;;
46491;SDS011;32206;51.446;6.792;2022-11-04T09:28:22;11.02;;;1.70;;
46491;SDS011;32206;51.446;6.792;2022-11-04T09:30:48;6.88;;;1.85;;
46491;SDS011;32206;51.446;6.792;2022-11-04T09:33:15;5.07;;;1.67;;
46491;SDS011;32206;51.446;6.792;2022-11-04T09:35:40;4.43;;;1.73;;
46491;SDS011;32206;51.446;6.792;2022-11-04T09:38:06;7.30;;;1.60;;
46491;SDS011;32206;51.446;6.792;2022-11-04T09:40:33;5.05;;;1.98;;
46491;SDS011;32206;51.446;6.792;2022-11-04T09:43:13;6.88;;;1.80;;
46491;SDS011;32206;51.446;6.792;2022-11-04T09:45:50;4.18;;;1.52;;
46491;SDS011;32206;51.446;6.792;2022-11-04T09:48:38;7.65;;;1.75;;
46491;SDS011;32206;51.446;6.792;2022-11-04T09:51:08;5.60;;;1.42;;
46491;SDS011;32206;51.446;6.792;2022-11-04T09:53:40;7.53;;;1.60;;
46491;SDS011;32206;51.446;6.792;2022-11-04T09:56:14;6.97;;;2.65;;
46491;SDS011;32206;51.446;6.792;2022-11-04T09:58:44;6.57;;;1.30;;
46491;SDS011;32206;51.446;6.792;2022-11-04T10:01:14;7.25;;;1.67;;
46491;SDS011;32206;51.446;6.792;2022-11-04T10:06:54;9.40;;;1.95;;
46491;SDS011;32206;51.446;6.792;2022-11-04T10:12:26;7.82;;;2.70;;
46491;SDS011;32206;51.446;6.792;2022-11-04T10:23:21;6.78;;;1.55;;
46491;SDS011;32206;51.446;6.792;2022-11-04T10:28:45;7.37;;;1.13;;
46491;SDS011;32206;51.446;6.792;2022-11-04T10:31:24;2.47;;;1.23;;
46491;SDS011;32206;51.446;6.792;2022-11-04T10:33:54;6.65;;;1.70;;
46491;SDS011;32206;51.446;6.792;2022-11-04T10:36:23;5.32;;;1.15;;
46491;SDS011;32206;51.446;6.792;2022-11-04T10:38:51;6.57;;;1.33;;
46491;SDS011;32206;51.446;6.792;2022-11-04T10:43:47;4.85;;;1.40;;
46491;SDS011;32206;51.446;6.792;2022-11-04T10:51:43;7.70;;;2.15;;
46491;SDS011;32206;51.446;6.792;2022-11-04T10:54:09;6.00;;;1.65;;
46491;SDS011;32206;51.446;6.792;2022-11-04T10:56:50;5.50;;;1.77;;
46491;SDS011;32206;51.446;6.792;2022-11-04T10:59:19;9.18;;;2.05;;
46491;SDS011;32206;51.446;6.792;2022-11-04T11:01:50;5.82;;;1.80;;
46491;SDS011;32206;51.446;6.792;2022-11-04T11:04:24;7.78;;;1.45;;
46491;SDS011;32206;51.446;6.792;2022-11-04T11:06:54;9.15;;;1.60;;
46491;SDS011;32206;51.446;6.792;2022-11-04T11:09:23;6.20;;;1.95;;
46491;SDS011;32206;51.446;6.792;2022-11-04T11:14:37;5.43;;;2.35;;
46491;SDS011;32206;51.446;6.792;2022-11-04T11:19:57;3.97;;;1.70;;
46491;SDS011;32206;51.446;6.792;2022-11-04T11:22:40;8.35;;;2.35;;
46491;SDS011;32206;51.446;6.792;2022-11-04T11:27:51;13.40;;;2.58;;
46491;SDS011;32206;51.446;6.792;2022-11-04T11:30:32;9.70;;;2.83;;
46491;SDS011;32206;51.446;6.792;2022-11-04T11:36:01;5.97;;;1.67;;
46491;SDS011;32206;51.446;6.792;2022-11-04T11:38:31;7.18;;;1.85;;
46491;SDS011;32206;51.446;6.792;2022-11-04T11:41:05;5.95;;;1.67;;
46491;SDS011;32206;51.446;6.792;2022-11-04T11:43:43;4.22;;;1.60;;
46491;SDS011;32206;51.446;6.792;2022-11-04T11:46:19;6.45;;;1.70;;
46491;SDS011;32206;51.446;6.792;2022-11-04T11:48:50;6.22;;;2.00;;
46491;SDS011;32206;51.446;6.792;2022-11-04T11:51:24;5.68;;;1.88;;
46491;SDS011;32206;51.446;6.792;2022-11-04T11:54:14;4.75;;;1.70;;
46491;SDS011;32206;51.446;6.792;2022-11-04T11:56:44;9.00;;;2.00;;
46491;SDS011;32206;51.446;6.792;2022-11-04T11:59:24;5.30;;;1.98;;
46491;SDS011;32206;51.446;6.792;2022-11-04T12:05:01;8.93;;;2.95;;
46491;SDS011;32206;51.446;6.792;2022-11-04T12:10:02;8.20;;;2.08;;
46491;SDS011;32206;51.446;6.792;2022-11-04T12:12:38;6.97;;;2.00;;
46491;SDS011;32206;51.446;6.792;2022-11-04T12:21:13;6.00;;;2.35;;
46491;SDS011;32206;51.446;6.792;2022-11-04T12:23:57;6.32;;;2.30;;
46491;SDS011;32206;51.446;6.792;2022-11-04T12:41:07;9.23;;;2.95;;
46491;SDS011;32206;51.446;6.792;2022-11-04T12:43:49;12.40;;;3.03;;
46491;SDS011;32206;51.446;6.792;2022-11-04T12:59:59;10.10;;;2.10;;
46491;SDS011;32206;51.446;6.792;2022-11-04T13:08:06;7.18;;;2.38;;
46491;SDS011;32206;51.446;6.792;2022-11-04T13:13:23;5.20;;;1.73;;
46491;SDS011;32206;51.446;6.792;2022-11-04T13:16:02;4.28;;;2.03;;
46491;SDS011;32206;51.446;6.792;2022-11-04T13:18:35;9.13;;;2.17;;
46491;SDS011;32206;51.446;6.792;2022-11-04T13:21:05;8.70;;;2.20;;
46491;SDS011;32206;51.446;6.792;2022-11-04T13:26:14;6.43;;;2.15;;
46491;SDS011;32206;51.446;6.792;2022-11-04T13:28:41;6.50;;;2.00;;
46491;SDS011;32206;51.446;6.792;2022-11-04T13:31:14;7.70;;;1.58;;
46491;SDS011;32206;51.446;6.792;2022-11-04T13:33:56;9.55;;;2.13;;
46491;SDS011;32206;51.446;6.792;2022-11-04T13:36:46;9.48;;;2.55;;
46491;SDS011;32206;51.446;6.792;2022-11-04T13:39:28;9.05;;;2.75;;
46491;SDS011;32206;51.446;6.792;2022-11-04T13:44:50;9.77;;;2.90;;
46491;SDS011;32206;51.446;6.792;2022-11-04T13:47:19;11.60;;;2.60;;
46491;SDS011;32206;51.446;6.792;2022-11-04T13:49:51;14.18;;;2.63;;
46491;SDS011;32206;51.446;6.792;2022-11-04T13:52:19;8.80;;;2.42;;
46491;SDS011;32206;51.446;6.792;2022-11-04T13:57:16;5.97;;;1.70;;
46491;SDS011;32206;51.446;6.792;2022-11-04T14:02:37;7.85;;;2.00;;
46491;SDS011;32206;51.446;6.792;2022-11-04T14:16:02;2.75;;;0.88;;
46491;SDS011;32206;51.446;6.792;2022-11-04T14:18:39;7.15;;;1.58;;
46491;SDS011;32206;51.446;6.792;2022-11-04T14:21:16;5.05;;;1.48;;
46491;SDS011;32206;51.446;6.792;2022-11-04T14:23:53;6.60;;;1.30;;
46491;SDS011;32206;51.446;6.792;2022-11-04T14:26:25;8.80;;;1.63;;
46491;SDS011;32206;51.446;6.792;2022-11-04T14:29:11;11.88;;;1.77;;
46491;SDS011;32206;51.446;6.792;2022-11-04T14:31:44;7.47;;;2.00;;
46491;SDS011;32206;51.446;6.792;2022-11-04T14:34:23;4.43;;;1.42;;
46491;SDS011;32206;51.446;6.792;2022-11-04T14:36:55;7.28;;;2.05;;
46491;SDS011;32206;51.446;6.792;2022-11-04T14:39:24;6.28;;;1.50;;
46491;SDS011;32206;51.446;6.792;2022-11-04T14:41:56;6.85;;;1.98;;
46491;SDS011;32206;51.446;6.792;2022-11-04T14:47:17;4.30;;;1.17;;
46491;SDS011;32206;51.446;6.792;2022-11-04T14:49:50;8.48;;;1.98;;
46491;SDS011;32206;51.446;6.792;2022-11-04T14:52:32;7.78;;;2.30;;
46491;SDS011;32206;51.446;6.792;2022-11-04T14:57:38;5.97;;;1.02;;
46491;SDS011;32206;51.446;6.792;2022-11-04T15:02:58;6.43;;;1.75;;
46491;SDS011;32206;51.446;6.792;2022-11-04T15:05:29;5.90;;;1.90;;
46491;SDS011;32206;51.446;6.792;2022-11-04T15:08:00;5.93;;;2.47;;
46491;SDS011;32206;51.446;6.792;2022-11-04T15:10:27;7.95;;;3.20;;
46491;SDS011;32206;51.446;6.792;2022-11-04T15:12:58;8.90;;;2.60;;
46491;SDS011;32206;51.446;6.792;2022-11-04T15:15:35;5.82;;;2.05;;
46491;SDS011;32206;51.446;6.792;2022-11-04T15:18:07;9.07;;;2.13;;
46491;SDS011;32206;51.446;6.792;2022-11-04T15:20:44;6.82;;;1.92;;
46491;SDS011;32206;51.446;6.792;2022-11-04T15:23:15;6.93;;;2.58;;
46491;SDS011;32206;51.446;6.792;2022-11-04T15:25:51;3.75;;;2.10;;
46491;SDS011;32206;51.446;6.792;2022-11-04T15:28:18;5.05;;;2.05;;
46491;SDS011;32206;51.446;6.792;2022-11-04T15:33:39;7.78;;;3.45;;
46491;SDS011;32206;51.446;6.792;2022-11-04T15:36:26;7.03;;;2.80;;
46491;SDS011;32206;51.446;6.792;2022-11-04T15:38:55;9.82;;;3.10;;
46491;SDS011;32206;51.446;6.792;2022-11-04T15:41:27;7.10;;;3.13;;
46491;SDS011;32206;51.446;6.792;2022-11-04T15:44:20;7.78;;;2.70;;
46491;SDS011;32206;51.446;6.792;2022-11-04T15:46:52;5.50;;;2.33;;
46491;SDS011;32206;51.446;6.792;2022-11-04T15:49:24;6.75;;;2.88;;
46491;SDS011;32206;51.446;6.792;2022-11-04T15:51:52;32.00;;;18.77;;
46491;SDS011;32206;51.446;6.792;2022-11-04T15:54:23;17.60;;;7.38;;
46491;SDS011;32206;51.446;6.792;2022-11-04T15:56:55;12.88;;;3.65;;
46491;SDS011;32206;51.446;6.792;2022-11-04T15:59:33;11.07;;;2.85;;
46491;SDS011;32206;51.446;6.792;2022-11-04T16:02:01;8.13;;;2.20;;
46491;SDS011;32206;51.446;6.792;2022-11-04T16:04:29;7.43;;;2.80;;
46491;SDS011;32206;51.446;6.792;2022-11-04T16:09:54;6.68;;;3.45;;
46491;SDS011;32206;51.446;6.792;2022-11-04T16:12:26;8.15;;;3.35;;
46491;SDS011;32206;51.446;6.792;2022-11-04T16:15:00;8.70;;;3.53;;
46491;SDS011;32206;51.446;6.792;2022-11-04T16:17:27;9.20;;;3.88;;
46491;SDS011;32206;51.446;6.792;2022-11-04T16:19:59;8.75;;;3.50;;
46491;SDS011;32206;51.446;6.792;2022-11-04T16:22:33;9.47;;;3.73;;
46491;SDS011;32206;51.446;6.792;2022-11-04T16:25:04;8.60;;;3.97;;
46491;SDS011;32206;51.446;6.792;2022-11-04T16:27:32;12.80;;;3.92;;
46491;SDS011;32206;51.446;6.792;2022-11-04T16:30:16;12.93;;;4.13;;
46491;SDS011;32206;51.446;6.792;2022-11-04T16:32:47;10.88;;;3.95;;
46491;SDS011;32206;51.446;6.792;2022-11-04T16:35:15;7.72;;;3.38;;
46491;SDS011;32206;51.446;6.792;2022-11-04T16:37:46;4.57;;;3.78;;
46491;SDS011;32206;51.446;6.792;2022-11-04T16:40:12;10.88;;;4.05;;
46491;SDS011;32206;51.446;6.792;2022-11-04T16:42:39;14.57;;;5.10;;
46491;SDS011;32206;51.446;6.792;2022-11-04T16:45:05;10.07;;;5.15;;
46491;SDS011;32206;51.446;6.792;2022-11-04T16:47:35;8.48;;;4.88;;
46491;SDS011;32206;51.446;6.792;2022-11-04T16:50:05;15.43;;;6.35;;
46491;SDS011;32206;51.446;6.792;2022-11-04T16:52:38;14.43;;;7.55;;
46491;SDS011;32206;51.446;6.792;2022-11-04T16:55:03;14.32;;;7.05;;
46491;SDS011;32206;51.446;6.792;2022-11-04T16:57:30;11.98;;;7.15;;
46491;SDS011;32206;51.446;6.792;2022-11-04T16:59:56;20.73;;;10.15;;
46491;SDS011;32206;51.446;6.792;2022-11-04T17:04:55;11.98;;;8.60;;
46491;SDS011;32206;51.446;6.792;2022-11-04T17:07:22;13.55;;;7.60;;
46491;SDS011;32206;51.446;6.792;2022-11-04T17:09:48;13.70;;;7.43;;
46491;SDS011;32206;51.446;6.792;2022-11-04T17:12:14;14.75;;;7.20;;
46491;SDS011;32206;51.446;6.792;2022-11-04T17:14:40;15.05;;;6.85;;
46491;SDS011;32206;51.446;6.792;2022-11-04T17:17:05;12.93;;;7.13;;
46491;SDS011;32206;51.446;6.792;2022-11-04T17:19:35;12.68;;;6.28;;
46491;SDS011;32206;51.446;6.792;2022-11-04T17:22:01;14.93;;;8.02;;
46491;SDS011;32206;51.446;6.792;2022-11-04T17:24:30;21.65;;;7.95;;
46491;SDS011;32206;51.446;6.792;2022-11-04T17:26:56;13.88;;;7.88;;
46491;SDS011;32206;51.446;6.792;2022-11-04T17:29:22;13.75;;;8.43;;
46491;SDS011;32206;51.446;6.792;2022-11-04T17:31:47;19.42;;;9.15;;
46491;SDS011;32206;51.446;6.792;2022-11-04T17:34:13;20.15;;;11.10;;
46491;SDS011;32206;51.446;6.792;2022-11-04T17:36:42;19.60;;;10.38;;
46491;SDS011;32206;51.446;6.792;2022-11-04T17:39:08;20.58;;;10.93;;
46491;SDS011;32206;51.446;6.792;2022-11-04T17:41:36;24.13;;;10.48;;
46491;SDS011;32206;51.446;6.792;2022-11-04T17:44:20;24.75;;;11.52;;
46491;SDS011;32206;51.446;6.792;2022-11-04T17:46:45;26.00;;;12.13;;
46491;SDS011;32206;51.446;6.792;2022-11-04T17:49:16;24.35;;;12.98;;
46491;SDS011;32206;51.446;6.792;2022-11-04T17:51:46;25.30;;;13.00;;